createdAt,value
2023-02-16T00:05:39.004Z,1.75
2023-02-16T00:11:18.962Z,1.69
2023-02-16T00:16:42.963Z,1.69
2023-02-16T00:22:09.972Z,1.67
2023-02-16T00:27:36.962Z,1.67
2023-02-16T00:33:01.968Z,1.69
2023-02-16T00:38:30.005Z,1.66
2023-02-16T00:44:04.004Z,1.67
2023-02-16T00:49:32.003Z,1.65
2023-02-16T00:54:55.982Z,1.66
2023-02-16T01:00:29.013Z,1.65
2023-02-16T01:05:52.998Z,1.64
2023-02-16T01:11:18.982Z,1.62
2023-02-16T01:16:53.015Z,1.55
2023-02-16T01:22:20.099Z,1.49
2023-02-16T01:27:54.091Z,1.45
2023-02-16T01:33:21.995Z,1.46
2023-02-16T01:38:46.992Z,1.51
2023-02-16T01:44:22.025Z,1.48
2023-02-16T01:49:50.019Z,1.47
2023-02-16T01:55:22.253Z,1.44
2023-02-16T02:01:17.040Z,1.45
2023-02-16T02:06:50.028Z,1.40
2023-02-16T02:12:23.028Z,1.39
2023-02-16T02:17:47.030Z,1.35
2023-02-16T02:23:43.177Z,1.32
2023-02-16T02:29:23.256Z,1.19
2023-02-16T02:35:04.062Z,1.04
2023-02-16T02:40:38.037Z,0.86
2023-02-16T02:46:10.027Z,0.77
2023-02-16T02:51:40.039Z,0.65
2023-02-16T02:57:21.029Z,0.47
2023-02-16T03:02:52.043Z,0.35
2023-02-16T03:08:24.097Z,0.31
2023-02-16T03:13:52.081Z,0.22
2023-02-16T03:19:35.025Z,0.15
2023-02-16T03:25:13.039Z,0.22
2023-02-16T03:30:39.167Z,0.24
2023-02-16T03:36:07.079Z,0.26
2023-02-16T03:41:38.052Z,0.29
2023-02-16T03:47:03.061Z,0.29
2023-02-16T03:52:30.083Z,0.27
2023-02-16T03:57:55.083Z,0.27
2023-02-16T04:03:20.065Z,0.30
2023-02-16T04:08:49.152Z,0.33
2023-02-16T04:14:13.058Z,0.31
2023-02-16T04:19:38.084Z,0.29
2023-02-16T04:25:05.103Z,0.24
2023-02-16T04:30:32.150Z,0.23
2023-02-16T04:35:57.102Z,0.20
2023-02-16T04:41:25.072Z,0.17
2023-02-16T04:46:49.056Z,0.13
2023-02-16T04:52:15.080Z,0.13
2023-02-16T04:57:42.100Z,0.15
2023-02-16T05:03:07.060Z,0.24
2023-02-16T05:08:31.080Z,0.26
2023-02-16T05:14:11.146Z,0.29
2023-02-16T05:19:35.167Z,0.35
2023-02-16T05:25:00.142Z,0.40
2023-02-16T05:30:29.158Z,0.38
2023-02-16T05:35:54.128Z,0.38
2023-02-16T05:41:30.091Z,0.37
2023-02-16T05:46:58.343Z,0.33
2023-02-16T05:52:23.464Z,0.30
2023-02-16T05:57:48.121Z,0.26
2023-02-16T06:03:15.120Z,0.24
2023-02-16T06:08:41.110Z,0.22
2023-02-16T06:14:06.117Z,0.20
2023-02-16T06:19:34.274Z,0.20
2023-02-16T06:24:58.186Z,0.17
2023-02-16T06:30:24.261Z,0.14
2023-02-16T06:35:51.167Z,0.12
2023-02-16T06:41:38.122Z,0.09
2023-02-16T06:47:03.120Z,0.09
2023-02-16T06:52:31.357Z,0.12
2023-02-16T06:57:56.164Z,0.21
2023-02-16T07:03:21.244Z,0.22
2023-02-16T07:08:49.155Z,0.26
2023-02-16T07:14:13.162Z,0.30
2023-02-16T07:19:39.132Z,0.44
2023-02-16T07:25:07.168Z,0.58
2023-02-16T07:30:33.240Z,0.72
2023-02-16T07:35:58.162Z,0.80
2023-02-16T07:41:26.383Z,0.88
2023-02-16T07:46:58.163Z,0.97
2023-02-16T07:52:24.125Z,1.10
2023-02-16T07:57:51.133Z,1.19
2023-02-16T08:03:16.380Z,1.28
2023-02-16T08:08:40.173Z,1.35
2023-02-16T08:14:08.169Z,1.48
2023-02-16T08:19:32.151Z,1.68
2023-02-16T08:24:58.129Z,1.91
2023-02-16T08:30:27.195Z,2.09
2023-02-16T08:35:52.177Z,2.34
2023-02-16T08:41:17.252Z,2.52
2023-02-16T08:46:47.181Z,2.69
2023-02-16T08:52:13.227Z,2.89
2023-02-16T08:57:38.178Z,3.08
2023-02-16T09:03:05.172Z,3.30
2023-02-16T09:08:31.183Z,3.50
2023-02-16T09:13:56.174Z,3.67
2023-02-16T09:19:25.276Z,3.80
2023-02-16T09:24:49.207Z,3.87
2023-02-16T09:30:16.220Z,3.89
2023-02-16T09:35:44.190Z,3.88
2023-02-16T09:41:16.205Z,3.96
2023-02-16T09:46:43.191Z,4.13
2023-02-16T09:52:21.364Z,4.25
2023-02-16T09:58:03.368Z,4.50
2023-02-16T10:03:45.359Z,4.97
2023-02-16T10:09:16.168Z,5.32
2023-02-16T10:14:48.205Z,5.57
2023-02-16T10:20:17.342Z,5.82
2023-02-16T10:25:53.194Z,6.01
2023-02-16T10:31:19.267Z,6.26
2023-02-16T10:37:00.232Z,6.46
2023-02-16T10:42:37.372Z,6.66
2023-02-16T10:48:02.197Z,6.90
2023-02-16T10:53:40.224Z,7.13
2023-02-16T10:59:10.222Z,7.35
2023-02-16T11:04:49.275Z,7.58
2023-02-16T11:10:31.230Z,7.80
2023-02-16T11:15:58.305Z,8.11
2023-02-16T11:21:24.213Z,8.32
2023-02-16T11:26:48.239Z,8.48
2023-02-16T11:32:21.224Z,8.60
2023-02-16T11:37:48.358Z,8.78
2023-02-16T11:43:20.269Z,8.89
2023-02-16T11:48:48.273Z,9.05
2023-02-16T11:54:17.291Z,9.22
2023-02-16T11:59:45.270Z,9.47
2023-02-16T12:05:38.271Z,9.66
2023-02-16T12:11:32.258Z,9.91
2023-02-16T12:17:05.397Z,10.07
2023-02-16T12:22:42.254Z,10.16
2023-02-16T12:28:18.256Z,10.43
2023-02-16T12:33:54.261Z,10.50
2023-02-16T12:39:35.244Z,10.70
2023-02-16T12:45:04.253Z,10.87
2023-02-16T12:50:36.403Z,11.01
2023-02-16T12:56:08.280Z,11.14
2023-02-16T13:01:37.276Z,11.29
2023-02-16T13:07:10.369Z,11.33
2023-02-16T13:12:45.325Z,11.36
2023-02-16T13:18:15.524Z,11.56
2023-02-16T13:23:53.326Z,11.57
2023-02-16T13:29:49.280Z,11.65
2023-02-16T13:35:29.303Z,11.60
2023-02-16T13:41:19.292Z,11.57
2023-02-16T13:46:49.328Z,11.59
2023-02-16T13:52:17.328Z,11.58
2023-02-16T13:58:17.428Z,11.64
2023-02-16T14:03:48.326Z,11.80
2023-02-16T14:10:01.355Z,11.67
2023-02-16T14:15:29.365Z,11.25
2023-02-16T14:20:56.311Z,11.06
2023-02-16T14:26:22.311Z,10.88
2023-02-16T14:31:55.386Z,10.78
2023-02-16T14:37:37.360Z,10.78
2023-02-16T14:43:11.317Z,10.79
2023-02-16T14:48:56.307Z,10.77
2023-02-16T14:54:57.324Z,10.86
2023-02-16T15:00:38.354Z,10.98
2023-02-16T15:06:12.331Z,11.02
2023-02-16T15:12:07.344Z,11.12
2023-02-16T15:17:43.464Z,11.02
2023-02-16T15:23:10.387Z,10.75
2023-02-16T15:28:40.352Z,10.58
2023-02-16T15:34:07.345Z,10.38
2023-02-16T15:39:53.520Z,10.21
2023-02-16T15:45:44.360Z,9.99
2023-02-16T15:51:20.378Z,9.83
2023-02-16T15:56:53.366Z,9.74
2023-02-16T16:02:25.538Z,9.44
2023-02-16T16:07:52.452Z,9.32
2023-02-16T16:13:24.362Z,9.23
2023-02-16T16:19:00.398Z,9.04
2023-02-16T16:24:40.634Z,8.90
2023-02-16T16:30:04.395Z,8.88
2023-02-16T16:35:44.412Z,8.78
2023-02-16T16:41:11.413Z,8.66
2023-02-16T16:46:39.430Z,8.50
2023-02-16T16:52:10.380Z,8.38
2023-02-16T16:57:36.385Z,8.26
2023-02-16T17:03:01.464Z,8.20
2023-02-16T17:08:29.440Z,8.12
2023-02-16T17:13:54.409Z,8.07
2023-02-16T17:19:21.424Z,7.94
2023-02-16T17:24:48.449Z,7.78
2023-02-16T17:30:15.606Z,7.78
2023-02-16T17:35:40.467Z,7.75
2023-02-16T17:41:08.529Z,7.74
2023-02-16T17:46:40.440Z,7.66
2023-02-16T17:52:05.404Z,7.59
2023-02-16T17:57:33.410Z,7.56
2023-02-16T18:02:58.445Z,7.49
2023-02-16T18:08:23.456Z,7.44
2023-02-16T18:13:51.464Z,7.37
2023-02-16T18:19:16.433Z,7.33
2023-02-16T18:24:41.432Z,7.25
2023-02-16T18:30:02.488Z,7.14
2023-02-16T18:35:27.431Z,7.06
2023-02-16T18:40:53.508Z,6.95
2023-02-16T18:46:28.525Z,6.86
2023-02-16T18:51:53.494Z,6.82
2023-02-16T18:57:17.470Z,6.69
2023-02-16T19:02:47.447Z,6.52
2023-02-16T19:08:11.458Z,6.46
2023-02-16T19:13:36.480Z,6.36
2023-02-16T19:19:04.495Z,6.31
2023-02-16T19:24:29.508Z,6.27
2023-02-16T19:29:53.604Z,6.21
2023-02-16T19:35:21.580Z,6.14
2023-02-16T19:40:45.491Z,6.11
2023-02-16T19:46:18.650Z,6.09
2023-02-16T19:51:46.482Z,6.02
2023-02-16T19:57:11.518Z,5.98
2023-02-16T20:02:37.562Z,5.94
2023-02-16T20:08:04.488Z,5.91
2023-02-16T20:13:29.569Z,5.93
2023-02-16T20:18:54.519Z,5.94
2023-02-16T20:24:23.506Z,5.97
2023-02-16T20:29:47.492Z,6.03
2023-02-16T20:35:14.869Z,6.05
2023-02-16T20:40:45.936Z,6.04
2023-02-16T20:46:19.557Z,6.01
2023-02-16T20:51:45.525Z,5.99
2023-02-16T20:57:26.006Z,6.03
2023-02-16T21:02:52.537Z,6.05
2023-02-16T21:08:16.521Z,6.05
2023-02-16T21:13:44.569Z,6.00
2023-02-16T21:19:21.204Z,5.97
2023-02-16T21:24:48.574Z,5.97
2023-02-16T21:30:15.588Z,5.99
2023-02-16T21:35:41.557Z,6.02
2023-02-16T21:41:18.543Z,6.04
2023-02-16T21:46:54.554Z,6.05
2023-02-16T21:52:19.527Z,6.09
2023-02-16T21:57:43.522Z,6.16
2023-02-16T22:03:11.555Z,6.22
2023-02-16T22:08:37.572Z,6.26
2023-02-16T22:14:04.769Z,6.25
2023-02-16T22:19:34.586Z,6.25
2023-02-16T22:24:59.551Z,6.28
2023-02-16T22:30:28.373Z,6.30
2023-02-16T22:35:56.626Z,6.30
2023-02-16T22:41:24.127Z,6.30
2023-02-16T22:46:56.940Z,6.30
2023-02-16T22:52:26.558Z,6.30
2023-02-16T22:58:03.581Z,6.28
2023-02-16T23:03:29.576Z,6.30
2023-02-16T23:08:56.593Z,6.32
2023-02-16T23:14:26.952Z,6.34
2023-02-16T23:19:54.582Z,6.35
2023-02-16T23:25:34.643Z,6.36
2023-02-16T23:31:00.705Z,6.40
2023-02-16T23:36:25.558Z,6.41
2023-02-16T23:41:52.688Z,6.45
2023-02-16T23:47:17.816Z,6.46
2023-02-16T23:52:41.589Z,6.47
2023-02-16T23:58:09.597Z,6.54
